createdAt,value
2018-03-07T00:00:19.087Z,29.1
2018-03-07T00:01:08.601Z,28.9
2018-03-07T00:01:59.232Z,28.8
2018-03-07T00:02:48.966Z,27.6
2018-03-07T00:03:38.476Z,27.1
2018-03-07T00:04:28.952Z,27.5
2018-03-07T00:05:17.441Z,28.3
2018-03-07T00:06:09.006Z,29.1
2018-03-07T00:06:59.020Z,30.2
2018-03-07T00:07:48.824Z,31.4
2018-03-07T00:08:39.384Z,32.6
2018-03-07T00:09:28.642Z,32.7
2018-03-07T00:10:19.784Z,32.6
2018-03-07T00:11:09.306Z,32.6
2018-03-07T00:11:59.616Z,32.4
2018-03-07T00:12:49.664Z,32.3
2018-03-07T00:13:38.994Z,32.1
2018-03-07T00:14:30.116Z,32
2018-03-07T00:15:19.033Z,31.8
2018-03-07T00:16:09.893Z,31.7
2018-03-07T00:16:59.976Z,31.5
2018-03-07T00:17:50.013Z,31.4
2018-03-07T00:18:39.751Z,31.2
2018-03-07T00:19:30.058Z,31.1
2018-03-07T00:20:20.415Z,30.9
2018-03-07T00:21:10.198Z,30.8
2018-03-07T00:22:00.152Z,30.6
2018-03-07T00:22:50.651Z,30.4
2018-03-07T00:23:41.286Z,30.3
2018-03-07T00:24:30.690Z,30.1
2018-03-07T00:25:21.339Z,30
2018-03-07T00:26:11.386Z,29.8
2018-03-07T00:27:01.888Z,29.7
2018-03-07T00:27:50.863Z,29.6
2018-03-07T00:28:41.724Z,29.4
2018-03-07T00:29:32.097Z,29.3
2018-03-07T00:30:21.061Z,29.1
2018-03-07T00:31:12.145Z,29
2018-03-07T00:32:01.686Z,28.9
2018-03-07T00:32:51.761Z,28.3
2018-03-07T00:33:42.386Z,27.2
2018-03-07T00:34:31.079Z,27.2
2018-03-07T00:35:22.207Z,27.8
2018-03-07T00:36:12.237Z,28.6
2018-03-07T00:37:02.312Z,29.6
2018-03-07T00:37:52.100Z,30.8
2018-03-07T00:38:42.669Z,32
2018-03-07T00:39:32.316Z,32.7
2018-03-07T00:40:22.775Z,32.7
2018-03-07T00:41:11.852Z,32.6
2018-03-07T00:42:02.126Z,32.5
2018-03-07T00:42:52.493Z,32.4
2018-03-07T00:43:40.696Z,32.3
2018-03-07T00:44:31.172Z,32.1
2018-03-07T00:45:20.442Z,31.9
2018-03-07T00:46:10.948Z,31.8
2018-03-07T00:47:01.073Z,31.6
2018-03-07T00:47:51.542Z,31.4
2018-03-07T00:48:41.058Z,31.3
2018-03-07T00:49:30.534Z,31.1
2018-03-07T00:50:20.766Z,31
2018-03-07T00:51:10.567Z,30.8
2018-03-07T00:52:01.324Z,30.7
2018-03-07T00:52:52.134Z,30.5
2018-03-07T00:53:40.998Z,30.3
2018-03-07T00:54:31.161Z,30.2
2018-03-07T00:55:22.548Z,30.1
2018-03-07T00:56:12.576Z,29.9
2018-03-07T00:57:03.236Z,29.8
2018-03-07T00:57:52.998Z,29.6
2018-03-07T00:58:42.789Z,29.5
2018-03-07T00:59:33.361Z,29.4
2018-03-07T01:00:23.407Z,29.2
2018-03-07T01:01:13.772Z,29.1
2018-03-07T01:02:03.301Z,28.9
2018-03-07T01:02:53.617Z,28.8
2018-03-07T01:03:42.823Z,27.7
2018-03-07T01:04:33.182Z,27.1
2018-03-07T01:05:23.550Z,27.4
2018-03-07T01:06:14.107Z,28.1
2018-03-07T01:07:04.736Z,28.9
2018-03-07T01:07:53.643Z,30
2018-03-07T01:08:43.998Z,31.1
2018-03-07T01:09:34.258Z,32.4
2018-03-07T01:10:23.835Z,32.7
2018-03-07T01:11:13.882Z,32.6
2018-03-07T01:12:04.042Z,32.6
2018-03-07T01:12:54.476Z,32.4
2018-03-07T01:13:44.654Z,32.3
2018-03-07T01:14:34.692Z,32.2
2018-03-07T01:15:24.478Z,32
2018-03-07T01:16:14.679Z,31.9
2018-03-07T01:17:04.821Z,31.7
2018-03-07T01:17:53.526Z,31.6
2018-03-07T01:18:44.919Z,31.4
2018-03-07T01:19:35.074Z,31.2
2018-03-07T01:20:25.274Z,31.1
2018-03-07T01:21:15.364Z,30.9
2018-03-07T01:22:05.458Z,30.8
2018-03-07T01:22:55.167Z,30.6
2018-03-07T01:23:45.536Z,30.4
2018-03-07T01:24:35.622Z,30.3
2018-03-07T01:25:25.431Z,30.1
2018-03-07T01:26:15.430Z,30
2018-03-07T01:27:05.239Z,29.9
2018-03-07T01:27:54.644Z,29.7
2018-03-07T01:28:45.302Z,29.6
2018-03-07T01:29:35.351Z,29.4
2018-03-07T01:30:26.021Z,29.3
2018-03-07T01:31:14.677Z,29.1
2018-03-07T01:32:05.291Z,29
2018-03-07T01:32:55.429Z,28.9
2018-03-07T01:33:45.424Z,28.7
2018-03-07T01:34:35.487Z,27.3
2018-03-07T01:35:25.305Z,27.1
2018-03-07T01:36:15.894Z,27.6
2018-03-07T01:37:06.146Z,28.3
2018-03-07T01:37:56.528Z,29.2
2018-03-07T01:38:46.829Z,30.2
2018-03-07T01:39:36.361Z,31.4
2018-03-07T01:40:26.387Z,32.6
2018-03-07T01:41:16.412Z,32.6
2018-03-07T01:42:06.221Z,32.6
2018-03-07T01:42:56.555Z,32.5
2018-03-07T01:43:46.061Z,32.4
2018-03-07T01:44:36.961Z,32.3
2018-03-07T01:45:26.179Z,32.1
2018-03-07T01:46:16.512Z,31.9
2018-03-07T01:47:06.348Z,31.8
2018-03-07T01:47:56.914Z,31.6
2018-03-07T01:48:47.253Z,31.4
2018-03-07T01:49:36.758Z,31.3
2018-03-07T01:50:27.365Z,31.1
2018-03-07T01:51:16.878Z,31
2018-03-07T01:52:06.883Z,30.9
2018-03-07T01:52:56.391Z,30.7
2018-03-07T01:53:46.460Z,30.6
2018-03-07T01:54:37.610Z,30.4
2018-03-07T01:55:27.698Z,30.3
2018-03-07T01:56:17.195Z,30.1
2018-03-07T01:57:07.543Z,29.9
2018-03-07T01:57:57.603Z,29.8
2018-03-07T01:58:47.362Z,29.6
2018-03-07T01:59:37.445Z,29.5
2018-03-07T02:00:27.808Z,29.4
2018-03-07T02:01:18.369Z,29.3
2018-03-07T02:02:07.860Z,29.1
2018-03-07T02:02:57.493Z,28.9
2018-03-07T02:03:48.285Z,28.8
2018-03-07T02:04:37.467Z,28.1
2018-03-07T02:05:27.531Z,27.1
2018-03-07T02:06:17.907Z,27.1
2018-03-07T02:07:07.072Z,27.8
2018-03-07T02:07:57.169Z,28.4
2018-03-07T02:08:48.139Z,29.4
2018-03-07T02:09:38.163Z,30.4
2018-03-07T02:10:28.757Z,31.6
2018-03-07T02:11:18.501Z,32.7
2018-03-07T02:12:08.832Z,32.7
2018-03-07T02:12:57.047Z,32.6
2018-03-07T02:13:48.261Z,32.6
2018-03-07T02:14:37.686Z,32.4
2018-03-07T02:15:27.839Z,32.3
2018-03-07T02:16:17.021Z,32.2
2018-03-07T02:17:08.075Z,32
2018-03-07T02:17:57.551Z,31.8
2018-03-07T02:18:48.293Z,31.7
2018-03-07T02:19:36.984Z,31.5
2018-03-07T02:20:27.913Z,31.4
2018-03-07T02:21:17.078Z,31.2
2018-03-07T02:22:08.168Z,31.1
2018-03-07T02:22:57.551Z,30.9
2018-03-07T02:23:46.758Z,30.8
2018-03-07T02:24:37.521Z,30.6
2018-03-07T02:25:28.141Z,30.4
2018-03-07T02:26:17.523Z,30.3
2018-03-07T02:27:07.908Z,30.1
2018-03-07T02:27:58.402Z,30
2018-03-07T02:28:48.023Z,29.8
2018-03-07T02:29:38.675Z,29.7
2018-03-07T02:30:27.474Z,29.6
2018-03-07T02:31:18.503Z,29.4
2018-03-07T02:32:08.684Z,29.3
2018-03-07T02:32:58.538Z,29.1
2018-03-07T02:33:49.267Z,29
2018-03-07T02:34:37.979Z,28.9
2018-03-07T02:35:29.797Z,28.6
2018-03-07T02:36:19.315Z,27.2
2018-03-07T02:37:09.667Z,27
2018-03-07T02:37:58.297Z,27.5
2018-03-07T02:38:49.214Z,28.2
2018-03-07T02:39:39.349Z,29.1
2018-03-07T02:40:29.413Z,30
2018-03-07T02:41:19.305Z,31.1
2018-03-07T02:42:08.472Z,32.3
2018-03-07T02:42:58.607Z,32.7
2018-03-07T02:43:50.352Z,32.7
2018-03-07T02:44:38.450Z,32.6
2018-03-07T02:45:30.389Z,32.5
2018-03-07T02:46:19.600Z,32.3
2018-03-07T02:47:10.480Z,32.2
2018-03-07T02:48:00.525Z,32
2018-03-07T02:48:51.129Z,31.9
2018-03-07T02:49:41.225Z,31.7
2018-03-07T02:50:30.946Z,31.6
2018-03-07T02:51:20.998Z,31.4
2018-03-07T02:52:11.949Z,31.2
2018-03-07T02:53:01.159Z,31.1
2018-03-07T02:53:51.269Z,30.9
2018-03-07T02:54:41.541Z,30.8
2018-03-07T02:55:31.086Z,30.6
2018-03-07T02:56:21.386Z,30.4
2018-03-07T02:57:11.410Z,30.3
2018-03-07T02:58:00.982Z,30.2
2018-03-07T02:58:51.776Z,30
2018-03-07T02:59:41.592Z,29.9
2018-03-07T03:00:31.739Z,29.7
2018-03-07T03:01:22.264Z,29.6
2018-03-07T03:02:12.340Z,29.4
2018-03-07T03:03:01.577Z,29.3
2018-03-07T03:03:51.894Z,29.1
2018-03-07T03:04:42.488Z,29
2018-03-07T03:05:31.751Z,28.9
2018-03-07T03:06:22.115Z,28.6
2018-03-07T03:07:11.814Z,27.2
2018-03-07T03:08:02.165Z,27
2018-03-07T03:08:52.500Z,27.4
2018-03-07T03:09:42.455Z,28.1
2018-03-07T03:10:32.886Z,28.9
2018-03-07T03:11:22.948Z,29.8
2018-03-07T03:12:12.996Z,30.8
2018-03-07T03:13:02.475Z,31.9
2018-03-07T03:13:52.516Z,32.6
2018-03-07T03:14:43.123Z,32.6
2018-03-07T03:15:31.865Z,32.6
2018-03-07T03:16:23.565Z,32.5
2018-03-07T03:17:13.285Z,32.4
2018-03-07T03:18:02.565Z,32.3
2018-03-07T03:18:53.434Z,32.1
2018-03-07T03:19:43.787Z,31.9
2018-03-07T03:20:33.264Z,31.7
2018-03-07T03:21:23.550Z,31.6
2018-03-07T03:22:13.936Z,31.4
2018-03-07T03:23:03.435Z,31.3
2018-03-07T03:23:53.797Z,31.1
2018-03-07T03:24:43.309Z,30.9
2018-03-07T03:25:33.965Z,30.8
2018-03-07T03:26:23.110Z,30.6
2018-03-07T03:27:14.252Z,30.4
2018-03-07T03:28:03.204Z,30.3
2018-03-07T03:28:53.874Z,30.2
2018-03-07T03:29:43.649Z,30
2018-03-07T03:30:33.159Z,29.9
2018-03-07T03:31:23.820Z,29.8
2018-03-07T03:32:13.532Z,29.6
2018-03-07T03:33:04.473Z,29.4
2018-03-07T03:33:54.156Z,29.3
2018-03-07T03:34:44.242Z,29.2
2018-03-07T03:35:33.872Z,29
2018-03-07T03:36:22.683Z,28.9
2018-03-07T03:37:12.814Z,28.5
2018-03-07T03:38:03.989Z,27.2
2018-03-07T03:38:53.328Z,27
2018-03-07T03:39:43.545Z,27.4
2018-03-07T03:40:34.121Z,28.1
2018-03-07T03:41:23.501Z,28.8
2018-03-07T03:42:13.324Z,29.7
2018-03-07T03:43:04.821Z,30.6
2018-03-07T03:43:55.149Z,31.7
2018-03-07T03:44:45.162Z,32.6
2018-03-07T03:45:35.054Z,32.6
2018-03-07T03:46:24.737Z,32.6
2018-03-07T03:47:15.121Z,32.5
2018-03-07T03:48:05.190Z,32.3
2018-03-07T03:48:55.243Z,32.2
2018-03-07T03:49:44.781Z,32.1
2018-03-07T03:50:35.323Z,31.9
2018-03-07T03:51:25.931Z,31.8
2018-03-07T03:52:14.863Z,31.6
2018-03-07T03:53:05.798Z,31.4
2018-03-07T03:53:54.986Z,31.3
2018-03-07T03:54:45.810Z,30.6
2018-03-07T03:55:35.399Z,29.4
2018-03-07T03:56:25.448Z,28.9
2018-03-07T03:57:15.241Z,28.6
2018-03-07T03:58:06.158Z,28.4
2018-03-07T03:58:56.128Z,28.2
2018-03-07T03:59:45.622Z,28
2018-03-07T04:00:35.695Z,27.9
2018-03-07T04:01:25.565Z,27.5
2018-03-07T04:02:15.070Z,27.2
2018-03-07T04:03:04.918Z,27.3
2018-03-07T04:03:56.105Z,27.9
2018-03-07T04:04:45.979Z,28.6
2018-03-07T04:05:36.372Z,29.4
2018-03-07T04:06:26.985Z,30.4
2018-03-07T04:07:16.493Z,31.4
2018-03-07T04:08:05.199Z,32.6
2018-03-07T04:08:56.623Z,32.8
2018-03-07T04:09:46.869Z,32.7
2018-03-07T04:10:36.997Z,32.6
2018-03-07T04:11:26.287Z,32.5
2018-03-07T04:12:16.590Z,32.4
2018-03-07T04:13:05.820Z,32.2
2018-03-07T04:13:56.144Z,32.1
2018-03-07T04:14:47.086Z,31.9
2018-03-07T04:15:35.720Z,31.7
2018-03-07T04:16:26.677Z,31.6
2018-03-07T04:17:16.680Z,31.4
2018-03-07T04:18:06.964Z,30.1
2018-03-07T04:18:56.787Z,29.4
2018-03-07T04:19:47.037Z,29
2018-03-07T04:20:37.078Z,28.8
2018-03-07T04:21:27.721Z,28.6
2018-03-07T04:22:17.217Z,28.4
2018-03-07T04:23:06.985Z,28.2
2018-03-07T04:23:57.319Z,28.1
2018-03-07T04:24:47.411Z,27.9
2018-03-07T04:25:38.232Z,27.5
2018-03-07T04:26:27.774Z,27.3
2018-03-07T04:27:18.114Z,27.4
2018-03-07T04:28:07.924Z,28.1
2018-03-07T04:28:57.141Z,28.8
2018-03-07T04:29:48.016Z,29.6
2018-03-07T04:30:37.770Z,30.6
2018-03-07T04:31:28.362Z,31.6
2018-03-07T04:32:18.718Z,32.6
2018-03-07T04:33:08.528Z,32.7
2018-03-07T04:33:57.425Z,32.6
2018-03-07T04:34:47.811Z,32.6
2018-03-07T04:35:37.537Z,32.4
2018-03-07T04:36:27.029Z,32.3
2018-03-07T04:37:19.070Z,32.1
2018-03-07T04:38:08.279Z,32
2018-03-07T04:38:58.386Z,31.8
2018-03-07T04:39:48.173Z,31.7
2018-03-07T04:40:37.718Z,31.5
2018-03-07T04:41:28.543Z,31
2018-03-07T04:42:19.163Z,29.8
2018-03-07T04:43:08.930Z,29.3
2018-03-07T04:43:59.239Z,28.9
2018-03-07T04:44:49.048Z,28.7
2018-03-07T04:45:38.883Z,28.5
2018-03-07T04:46:29.408Z,28.4
2018-03-07T04:47:19.469Z,28.2
2018-03-07T04:48:09.653Z,28.1
2018-03-07T04:48:59.375Z,27.9
2018-03-07T04:49:49.345Z,27.4
2018-03-07T04:50:39.723Z,27.2
2018-03-07T04:51:29.785Z,27.5
2018-03-07T04:52:17.900Z,28.1
2018-03-07T04:53:07.755Z,28.9
2018-03-07T04:53:58.620Z,29.8
2018-03-07T04:54:47.861Z,30.8
2018-03-07T04:55:38.264Z,31.9
2018-03-07T04:56:27.104Z,32.6
2018-03-07T04:57:20.517Z,32.7
2018-03-07T04:58:09.734Z,32.6
2018-03-07T04:58:59.827Z,32.4
2018-03-07T04:59:49.487Z,32.3
2018-03-07T05:00:39.834Z,32.2
2018-03-07T05:01:30.536Z,32.1
2018-03-07T05:02:20.234Z,31.9
2018-03-07T05:03:10.847Z,31.7
2018-03-07T05:04:00.034Z,31.6
2018-03-07T05:04:50.930Z,31.4
2018-03-07T05:05:40.179Z,31.2
2018-03-07T05:06:30.556Z,31.1
2018-03-07T05:07:21.096Z,30.9
2018-03-07T05:08:10.940Z,30.8
2018-03-07T05:09:00.946Z,30.6
2018-03-07T05:09:50.752Z,30.4
2018-03-07T05:10:41.106Z,30.3
2018-03-07T05:11:31.118Z,30.1
2018-03-07T05:12:21.478Z,30
2018-03-07T05:13:10.661Z,29.8
2018-03-07T05:14:00.495Z,29.7
2018-03-07T05:14:51.357Z,29.6
2018-03-07T05:15:41.653Z,29.4
2018-03-07T05:16:31.183Z,29.2
2018-03-07T05:17:21.797Z,29.1
2018-03-07T05:18:11.388Z,28.9
2018-03-07T05:19:01.624Z,28.8
2018-03-07T05:19:51.681Z,28.6
2018-03-07T05:20:41.831Z,27.2
2018-03-07T05:21:32.114Z,27
2018-03-07T05:22:21.909Z,27.6
2018-03-07T05:23:11.945Z,28.4
2018-03-07T05:24:01.162Z,29.4
2018-03-07T05:24:51.366Z,30.5
2018-03-07T05:25:41.847Z,31.8
2018-03-07T05:26:31.055Z,32.7
2018-03-07T05:27:21.986Z,32.7
2018-03-07T05:28:11.742Z,32.6
2018-03-07T05:29:02.329Z,32.5
2018-03-07T05:29:52.409Z,32.4
2018-03-07T05:30:41.894Z,32.3
2018-03-07T05:31:32.551Z,32.1
2018-03-07T05:32:22.291Z,31.9
2018-03-07T05:33:12.879Z,31.8
2018-03-07T05:34:02.121Z,31.6
2018-03-07T05:34:53.003Z,31.4
2018-03-07T05:35:42.603Z,31.3
2018-03-07T05:36:32.857Z,31.1
2018-03-07T05:37:23.216Z,30.9
2018-03-07T05:38:13.006Z,30.8
2018-03-07T05:39:02.733Z,30.6
2018-03-07T05:39:52.577Z,30.4
2018-03-07T05:40:42.889Z,30.3
2018-03-07T05:41:32.623Z,30.1
2018-03-07T05:42:23.508Z,30
2018-03-07T05:43:13.482Z,29.9
2018-03-07T05:44:02.267Z,29.7
2018-03-07T05:44:52.839Z,29.6
2018-03-07T05:45:42.973Z,29.4
2018-03-07T05:46:33.249Z,29.3
2018-03-07T05:47:23.328Z,29.1
2018-03-07T05:48:13.374Z,29
2018-03-07T05:49:03.775Z,28.8
2018-03-07T05:49:53.216Z,28.1
2018-03-07T05:50:43.000Z,27.1
2018-03-07T05:51:33.615Z,27.3
2018-03-07T05:52:23.401Z,27.9
2018-03-07T05:53:13.768Z,28.9
2018-03-07T05:54:03.783Z,30
2018-03-07T05:54:53.847Z,31.4
2018-03-07T05:55:43.037Z,32.6
2018-03-07T05:56:33.700Z,32.8
2018-03-07T05:57:23.215Z,32.7
2018-03-07T05:58:14.108Z,32.6
2018-03-07T05:59:04.389Z,32.4
2018-03-07T05:59:54.178Z,32.3
2018-03-07T06:00:44.205Z,32.2
2018-03-07T06:01:34.080Z,32
2018-03-07T06:02:24.066Z,31.9
2018-03-07T06:03:14.664Z,31.8
2018-03-07T06:04:04.468Z,31.6
2018-03-07T06:04:53.692Z,31.4
2018-03-07T06:05:44.277Z,31.3
2018-03-07T06:06:34.067Z,31.1
2018-03-07T06:07:24.140Z,30.9
2018-03-07T06:08:14.465Z,30.8
2018-03-07T06:09:05.104Z,30.6
2018-03-07T06:09:54.877Z,30.4
2018-03-07T06:10:44.079Z,30.3
2018-03-07T06:11:34.694Z,30.1
2018-03-07T06:12:24.755Z,30
2018-03-07T06:13:14.277Z,29.9
2018-03-07T06:14:05.149Z,29.7
2018-03-07T06:14:55.197Z,29.5
2018-03-07T06:15:45.833Z,29.4
2018-03-07T06:16:35.316Z,29.3
2018-03-07T06:17:25.424Z,29
2018-03-07T06:18:15.958Z,27.6
2018-03-07T06:19:05.200Z,27.6
2018-03-07T06:19:55.250Z,28.3
2018-03-07T06:20:45.871Z,29.3
2018-03-07T06:21:35.226Z,30.7
2018-03-07T06:22:24.998Z,32.3
2018-03-07T06:23:15.431Z,32.9
2018-03-07T06:24:05.956Z,33
2018-03-07T06:24:54.821Z,32.9
2018-03-07T06:25:45.461Z,32.9
2018-03-07T06:26:36.044Z,32.7
2018-03-07T06:27:25.549Z,32.6
2018-03-07T06:28:15.866Z,32.4
2018-03-07T06:29:05.914Z,32.3
2018-03-07T06:29:55.765Z,32.1
2018-03-07T06:30:45.754Z,31.9
2018-03-07T06:31:36.136Z,31.8
2018-03-07T06:32:26.436Z,31.6
2018-03-07T06:33:16.788Z,31.4
2018-03-07T06:34:06.932Z,31.3
2018-03-07T06:34:56.615Z,31.1
2018-03-07T06:35:46.435Z,30.9
2018-03-07T06:36:36.473Z,30.8
2018-03-07T06:37:26.715Z,30.6
2018-03-07T06:38:16.221Z,30.4
2018-03-07T06:39:06.894Z,30.3
2018-03-07T06:39:54.449Z,30.2
2018-03-07T06:40:47.054Z,30
2018-03-07T06:41:35.665Z,29.9
2018-03-07T06:42:25.658Z,29.7
2018-03-07T06:43:15.391Z,29.6
2018-03-07T06:44:05.595Z,29.4
2018-03-07T06:44:55.432Z,29.3
2018-03-07T06:45:43.888Z,29.1
2018-03-07T06:46:35.220Z,29
2018-03-07T06:47:26.161Z,27.9
2018-03-07T06:48:16.462Z,27.2
2018-03-07T06:49:05.270Z,27.7
2018-03-07T06:49:55.152Z,28.6
2018-03-07T06:50:46.950Z,29.9
2018-03-07T06:51:35.542Z,31.4
2018-03-07T06:52:25.914Z,32.9
2018-03-07T06:53:17.606Z,33.1
2018-03-07T06:54:06.164Z,33.1
2018-03-07T06:54:56.417Z,33
2018-03-07T06:55:46.972Z,32.9
2018-03-07T06:56:35.305Z,32.8
2018-03-07T06:57:26.246Z,32.6
2018-03-07T06:58:17.352Z,32.4
2018-03-07T06:59:06.099Z,32.3
2018-03-07T06:59:58.855Z,32.1
2018-03-07T07:00:48.354Z,31.9
2018-03-07T07:01:38.731Z,31.8
2018-03-07T07:02:28.197Z,31.6
2018-03-07T07:03:18.829Z,31.4
2018-03-07T07:04:08.184Z,31.3
2018-03-07T07:04:58.348Z,31.1
2018-03-07T07:05:49.231Z,30.9
2018-03-07T07:06:39.346Z,30.8
2018-03-07T07:07:28.577Z,30.6
2018-03-07T07:08:18.891Z,30.5
2018-03-07T07:09:08.674Z,30.3
2018-03-07T07:09:58.455Z,30.2
2018-03-07T07:10:49.031Z,30
2018-03-07T07:11:39.192Z,29.9
2018-03-07T07:12:29.192Z,29.7
2018-03-07T07:13:18.976Z,29.6
2018-03-07T07:14:08.987Z,29.4
2018-03-07T07:14:57.010Z,29.3
2018-03-07T07:15:48.217Z,29.1
2018-03-07T07:16:37.896Z,29
2018-03-07T07:17:27.170Z,28
2018-03-07T07:18:17.997Z,27.2
2018-03-07T07:19:07.058Z,27.7
2018-03-07T07:19:58.105Z,28.6
2018-03-07T07:20:48.898Z,30
2018-03-07T07:21:38.880Z,31.7
2018-03-07T07:22:28.785Z,32.9
2018-03-07T07:23:18.935Z,33.1
2018-03-07T07:24:09.478Z,33.1
2018-03-07T07:24:58.784Z,33.1
2018-03-07T07:25:48.722Z,32.9
2018-03-07T07:26:40.135Z,32.8
2018-03-07T07:27:30.199Z,32.6
2018-03-07T07:28:20.566Z,32.5
2018-03-07T07:29:10.345Z,32.3
2018-03-07T07:29:59.917Z,32.1
2018-03-07T07:30:50.456Z,31.9
2018-03-07T07:31:40.477Z,31.8
2018-03-07T07:32:30.070Z,31.6
2018-03-07T07:33:19.002Z,31.5
2018-03-07T07:34:08.733Z,31.3
2018-03-07T07:34:59.193Z,31.2
2018-03-07T07:35:49.463Z,31
2018-03-07T07:36:39.932Z,30.9
2018-03-07T07:37:29.918Z,30.7
2018-03-07T07:38:20.233Z,30.5
2018-03-07T07:39:09.637Z,30.4
2018-03-07T07:40:00.400Z,30.2
2018-03-07T07:40:49.112Z,30.1
2018-03-07T07:41:40.297Z,29.9
2018-03-07T07:42:30.172Z,29.8
2018-03-07T07:43:22.345Z,29.6
2018-03-07T07:44:11.998Z,29.5
2018-03-07T07:45:00.867Z,29.3
2018-03-07T07:45:51.242Z,29.2
2018-03-07T07:46:41.276Z,29.1
2018-03-07T07:47:31.830Z,28.1
2018-03-07T07:48:22.230Z,27.2
2018-03-07T07:49:11.471Z,27.6
2018-03-07T07:50:01.763Z,28.6
2018-03-07T07:50:52.003Z,29.9
2018-03-07T07:51:41.899Z,31.6
2018-03-07T07:52:31.436Z,32.9
2018-03-07T07:53:22.306Z,33
2018-03-07T07:55:29.756Z,33
2018-03-07T07:55:39.856Z,32.8
2018-03-07T07:56:30.956Z,32.8
2018-03-07T07:57:21.263Z,32.6
2018-03-07T07:58:11.333Z,32.4
2018-03-07T07:59:01.116Z,32.3
2018-03-07T07:59:52.314Z,32.1
2018-03-07T08:00:42.201Z,31.9
2018-03-07T08:01:30.385Z,31.8
2018-03-07T08:02:19.539Z,31.6
2018-03-07T08:03:11.460Z,31.4
2018-03-07T08:05:04.577Z,31.3
2018-03-07T08:05:14.298Z,30.9
2018-03-07T08:06:05.283Z,30.9
2018-03-07T08:06:55.365Z,30.8
2018-03-07T08:07:44.379Z,30.6
2018-03-07T08:08:47.034Z,30.3
2018-03-07T08:09:26.317Z,30.2
2018-03-07T08:10:14.713Z,30.1
2018-03-07T08:11:04.796Z,29.9
2018-03-07T08:12:36.217Z,29.8
2018-03-07T08:13:36.463Z,29.5
2018-03-07T08:14:26.119Z,29.4
2018-03-07T08:16:46.545Z,29.3
2018-03-07T08:16:58.026Z,27.6
2018-03-07T08:17:48.222Z,27.4
2018-03-07T08:18:38.232Z,27.4
2018-03-07T08:19:28.619Z,28.3
2018-03-07T08:20:19.018Z,29.6
2018-03-07T08:21:08.145Z,31.3
2018-03-07T08:21:58.517Z,32.8
2018-03-07T08:22:49.139Z,33
2018-03-07T08:23:38.897Z,33
2018-03-07T08:24:29.252Z,32.9
2018-03-07T08:25:18.817Z,32.8
2018-03-07T08:26:09.376Z,32.7
2018-03-07T08:26:59.452Z,32.6
2018-03-07T08:27:49.615Z,32.4
2018-03-07T08:28:39.586Z,32.3
2018-03-07T08:29:29.629Z,32.1
2018-03-07T08:30:19.120Z,31.9
2018-03-07T08:31:09.745Z,31.8
2018-03-07T08:31:59.199Z,31.6
2018-03-07T08:32:49.274Z,31.4
2018-03-07T08:33:39.634Z,31.3
2018-03-07T08:34:29.753Z,31.1
2018-03-07T08:35:19.723Z,30.9
2018-03-07T08:36:09.815Z,30.8
2018-03-07T08:36:59.246Z,30.6
2018-03-07T08:37:49.908Z,30.5
2018-03-07T08:38:39.489Z,30.3
2018-03-07T08:39:30.009Z,30.2
2018-03-07T08:40:19.779Z,30
2018-03-07T08:41:09.841Z,29.9
2018-03-07T08:42:00.483Z,29.7
2018-03-07T08:42:50.248Z,29.6
2018-03-07T08:43:40.591Z,29.4
2018-03-07T08:44:30.210Z,29.3
2018-03-07T08:45:20.390Z,29.1
2018-03-07T08:46:11.163Z,29
2018-03-07T08:46:59.965Z,28.8
2018-03-07T08:47:50.335Z,27.4
2018-03-07T08:48:40.901Z,27.3
2018-03-07T08:49:30.946Z,28.2
2018-03-07T08:50:21.063Z,29.5
2018-03-07T08:51:10.491Z,31.2
2018-03-07T08:52:01.143Z,32.8
2018-03-07T08:52:50.624Z,33.1
2018-03-07T08:53:40.393Z,33.1
2018-03-07T08:54:30.006Z,33
2018-03-07T08:55:20.820Z,32.9
2018-03-07T08:56:11.146Z,32.8
2018-03-07T08:57:00.032Z,32.7
2018-03-07T08:57:51.349Z,32.5
2018-03-07T08:58:41.347Z,32.3
2018-03-07T08:59:27.618Z,32.1
2018-03-07T09:00:20.555Z,32
2018-03-07T09:01:10.652Z,31.8
2018-03-07T09:01:59.902Z,31.6
2018-03-07T09:02:49.324Z,31.5
2018-03-07T09:03:39.369Z,31.3
2018-03-07T09:04:30.595Z,31.2
2018-03-07T09:05:21.041Z,31
2018-03-07T09:06:10.547Z,30.9
2018-03-07T09:07:01.433Z,30.7
2018-03-07T09:07:50.833Z,30.6
2018-03-07T09:08:42.027Z,30.4
2018-03-07T09:09:31.764Z,30.3
2018-03-07T09:10:22.663Z,30.1
2018-03-07T09:11:12.455Z,29.9
2018-03-07T09:12:01.947Z,29.8
2018-03-07T09:12:51.467Z,29.6
2018-03-07T09:13:42.075Z,29.5
2018-03-07T09:14:32.432Z,29.4
2018-03-07T09:15:22.190Z,29.2
2018-03-07T09:16:11.722Z,29.1
2018-03-07T09:17:02.889Z,28.9
2018-03-07T09:18:42.416Z,27.1
2018-03-07T09:19:31.594Z,27.9
2018-03-07T09:20:22.886Z,29.1
2018-03-07T09:21:13.281Z,30.8
2018-03-07T09:22:02.686Z,32.8
2018-03-07T09:22:53.306Z,33.1
2018-03-07T09:23:42.544Z,33.2
2018-03-07T09:24:32.653Z,33.1
2018-03-07T09:25:21.554Z,33
2018-03-07T09:26:11.922Z,32.9
2018-03-07T09:27:03.335Z,32.8
2018-03-07T09:27:52.806Z,32.6
2018-03-07T09:28:42.871Z,32.4
2018-03-07T09:29:32.406Z,32.3
2018-03-07T09:30:23.000Z,32.1
2018-03-07T09:31:12.729Z,31.9
2018-03-07T09:32:03.496Z,31.8
2018-03-07T09:32:53.759Z,31.6
2018-03-07T09:33:42.914Z,31.4
2018-03-07T09:34:33.387Z,31.3
2018-03-07T09:35:23.601Z,31.1
2018-03-07T09:36:12.911Z,30.9
2018-03-07T09:37:03.450Z,30.8
2018-03-07T09:37:54.043Z,30.7
2018-03-07T09:38:44.142Z,30.5
2018-03-07T09:39:33.880Z,30.4
2018-03-07T09:40:24.552Z,30.3
2018-03-07T09:41:14.013Z,30.1
2018-03-07T09:42:04.390Z,29.9
2018-03-07T09:42:54.400Z,29.8
2018-03-07T09:43:44.458Z,29.6
2018-03-07T09:44:34.587Z,29.5
2018-03-07T09:45:24.320Z,29.4
2018-03-07T09:46:14.818Z,29.2
2018-03-07T09:47:04.133Z,29.1
2018-03-07T09:47:53.437Z,28.9
2018-03-07T09:48:43.782Z,28.8
2018-03-07T09:49:34.093Z,28.6
2018-03-07T09:50:24.190Z,28.5
2018-03-07T09:51:14.663Z,28.3
2018-03-07T09:52:02.928Z,28.3
2018-03-07T09:52:51.670Z,28.1
2018-03-07T09:53:42.354Z,28
2018-03-07T09:54:33.982Z,27.9
2018-03-07T09:55:23.040Z,27.7
2018-03-07T09:56:14.749Z,27.6
2018-03-07T09:57:03.113Z,27.4
2018-03-07T09:57:53.244Z,27.3
2018-03-07T09:58:44.584Z,27.2
2018-03-07T09:59:34.080Z,27.1
2018-03-07T10:00:22.077Z,26.9
2018-03-07T10:01:13.234Z,26.8
2018-03-07T10:02:03.945Z,26.7
2018-03-07T10:02:53.522Z,26.6
2018-03-07T10:03:43.539Z,26.4
2018-03-07T10:04:33.825Z,26.3
2018-03-07T10:05:25.287Z,26.2
2018-03-07T10:06:14.493Z,26.1
2018-03-07T10:07:06.033Z,25.3
2018-03-07T10:07:55.382Z,25.3
2018-03-07T10:08:45.145Z,26.3
2018-03-07T10:09:35.809Z,27.6
2018-03-07T10:10:25.327Z,29.2
2018-03-07T10:11:14.891Z,31.1
2018-03-07T10:12:06.202Z,32.8
2018-03-07T10:12:54.918Z,33
2018-03-07T10:13:46.056Z,33
2018-03-07T10:14:36.043Z,33
2018-03-07T10:15:26.011Z,32.9
2018-03-07T10:17:49.984Z,32.8
2018-03-07T10:18:00.086Z,32.3
2018-03-07T10:18:50.491Z,32.3
2018-03-07T10:19:40.942Z,32.1
2018-03-07T10:20:30.904Z,31.9
2018-03-07T10:21:21.330Z,31.8
2018-03-07T10:22:11.823Z,31.6
2018-03-07T10:23:02.253Z,31.5
2018-03-07T10:23:52.214Z,31.3
2018-03-07T10:24:41.431Z,31.1
2018-03-07T10:25:32.065Z,31.1
2018-03-07T10:26:22.158Z,30.9
2018-03-07T10:27:11.908Z,30.7
2018-03-07T10:28:01.830Z,30.6
2018-03-07T10:28:51.563Z,30.4
2018-03-07T10:29:42.175Z,30.3
2018-03-07T10:30:31.666Z,30.1
2018-03-07T10:31:22.191Z,29.9
2018-03-07T10:32:12.044Z,29.8
2018-03-07T10:33:02.322Z,29.7
2018-03-07T10:33:51.958Z,29.5
2018-03-07T10:34:42.500Z,29.4
2018-03-07T10:35:31.809Z,29.3
2018-03-07T10:36:22.234Z,29.1
2018-03-07T10:37:12.600Z,28.9
2018-03-07T10:38:02.726Z,28.8
2018-03-07T10:38:53.007Z,28.7
2018-03-07T10:39:43.207Z,28.6
2018-03-07T10:40:33.134Z,28.4
2018-03-07T10:41:22.581Z,28.3
2018-03-07T10:42:12.915Z,28.2
2018-03-07T10:43:03.569Z,28.1
2018-03-07T10:43:52.767Z,27.9
2018-03-07T10:45:33.733Z,27.7
2018-03-07T10:46:23.522Z,27.6
2018-03-07T10:47:14.039Z,27.4
2018-03-07T10:48:03.707Z,27.3
2018-03-07T10:48:53.982Z,27.1
2018-03-07T10:49:44.063Z,27.1
2018-03-07T10:50:33.055Z,26.9
2018-03-07T10:51:23.424Z,26.8
2018-03-07T10:52:11.186Z,26.7
2018-03-07T10:53:02.224Z,26.6
2018-03-07T10:53:53.512Z,26.4
2018-03-07T10:54:42.954Z,26.3
2018-03-07T10:55:32.959Z,26.3
2018-03-07T10:56:22.804Z,26.1
2018-03-07T10:57:12.379Z,25.3
2018-03-07T10:58:02.528Z,24.8
2018-03-07T10:58:54.691Z,25.5
2018-03-07T10:59:44.728Z,26.6
2018-03-07T11:00:34.803Z,27.9
2018-03-07T11:01:24.001Z,29.4
2018-03-07T11:02:14.171Z,31.2
2018-03-07T11:03:04.546Z,32.7
2018-03-07T11:03:54.755Z,32.7
2018-03-07T11:04:44.548Z,32.7
2018-03-07T11:05:35.180Z,32.6
2018-03-07T11:06:24.696Z,32.5
2018-03-07T11:07:15.280Z,32.4
2018-03-07T11:08:05.045Z,32.3
2018-03-07T11:08:55.422Z,32.1
2018-03-07T11:09:44.278Z,32
2018-03-07T11:10:38.208Z,31.8
2018-03-07T11:11:25.237Z,31.7
2018-03-07T11:12:15.312Z,31.6
2018-03-07T11:13:05.132Z,31.4
2018-03-07T11:13:55.732Z,31.3
2018-03-07T11:14:45.498Z,31.1